Time;durP1;ratioP1;P1;durP2;ratioP2;P2;SDS_P1;SDS_P2;PMS_P1;PMS_P2;Temp;Humidity;BMP_temperature;BMP_pressure;BME280_temperature;BME280_humidity;BME280_pressure;Samples;Min_cycle;Max_cycle;Signal;HPM_P1;HPM_P2
2023/09/29 00:00:26;;;;;;;19.80;12.40;;;;;;;;;;109427;1251;60439;-80
2023/09/29 00:03:15;;;;;;;17.80;11.50;;;;;;;;;;109350;1251;60398;-80
2023/09/29 00:05:42;;;;;;;18.90;11.60;;;;;;;;;;109290;1251;59490;-80
2023/09/29 00:08:09;;;;;;;23.40;12.30;;;;;;;;;;109416;1251;58971;-80
2023/09/29 00:10:39;;;;;;;23.90;13.20;;;;;;;;;;109444;1251;59708;-81
2023/09/29 00:13:06;;;;;;;21.30;11.00;;;;;;;;;;109432;1251;61979;-80
2023/09/29 00:15:33;;;;;;;21.60;12.70;;;;;;;;;;109396;1253;59054;-79
2023/09/29 00:18:00;;;;;;;20.70;12.90;;;;;;;;;;109302;1250;59650;-80
2023/09/29 00:20:26;;;;;;;18.10;11.90;;;;;;;;;;109421;1251;59810;-80
2023/09/29 00:22:54;;;;;;;19.60;12.60;;;;;;;;;;109412;1251;59580;-80
2023/09/29 00:25:20;;;;;;;21.10;13.60;;;;;;;;;;109424;1252;60407;-80
2023/09/29 00:27:47;;;;;;;25.00;13.20;;;;;;;;;;109294;1251;59061;-80
2023/09/29 00:30:14;;;;;;;20.00;11.90;;;;;;;;;;109374;1253;58998;-80
2023/09/29 00:32:48;;;;;;;19.80;12.70;;;;;;;;;;109391;1251;59601;-79
2023/09/29 00:35:18;;;;;;;19.00;10.70;;;;;;;;;;109428;1251;59456;-80
2023/09/29 00:37:45;;;;;;;20.90;11.70;;;;;;;;;;109409;1251;60460;-81
2023/09/29 00:40:13;;;;;;;15.30;9.80;;;;;;;;;;109434;1251;59355;-80
2023/09/29 00:42:39;;;;;;;15.40;10.90;;;;;;;;;;109426;1253;59666;-80
2023/09/29 00:45:06;;;;;;;14.90;10.40;;;;;;;;;;109356;1251;59677;-80
2023/09/29 00:47:32;;;;;;;18.80;11.30;;;;;;;;;;109412;1251;59445;-80
2023/09/29 00:49:59;;;;;;;13.50;10.90;;;;;;;;;;109421;1250;59691;-80
2023/09/29 00:52:27;;;;;;;20.40;11.50;;;;;;;;;;109354;1251;59339;-80
2023/09/29 00:54:53;;;;;;;22.50;13.00;;;;;;;;;;109391;1251;60740;-80
2023/09/29 00:57:20;;;;;;;16.60;11.90;;;;;;;;;;109393;1251;59738;-80
2023/09/29 00:59:46;;;;;;;17.30;11.30;;;;;;;;;;109394;1251;59089;-80
2023/09/29 01:02:14;;;;;;;18.80;11.80;;;;;;;;;;109355;1253;59506;-80
2023/09/29 01:04:41;;;;;;;16.40;10.30;;;;;;;;;;109384;1251;59187;-79
2023/09/29 01:07:08;;;;;;;14.60;10.50;;;;;;;;;;109404;1250;59559;-80
2023/09/29 01:09:35;;;;;;;12.60;9.40;;;;;;;;;;109373;1253;59273;-80
2023/09/29 01:12:01;;;;;;;14.80;10.60;;;;;;;;;;109148;1251;161593;-80
2023/09/29 01:14:28;;;;;;;17.10;12.00;;;;;;;;;;109431;1251;62323;-80
2023/09/29 01:16:54;;;;;;;21.30;12.40;;;;;;;;;;109404;1250;59054;-80
2023/09/29 01:19:21;;;;;;;19.30;11.90;;;;;;;;;;109368;1251;60510;-80
2023/09/29 01:21:47;;;;;;;18.70;11.20;;;;;;;;;;109372;1251;59083;-79
2023/09/29 01:24:14;;;;;;;16.40;12.00;;;;;;;;;;109352;1251;59433;-80
2023/09/29 01:26:46;;;;;;;16.60;11.60;;;;;;;;;;109429;1250;61888;-80
2023/09/29 01:29:13;;;;;;;15.60;11.60;;;;;;;;;;109430;1251;59090;-80
2023/09/29 01:31:41;;;;;;;16.90;10.40;;;;;;;;;;109360;1250;59628;-80
2023/09/29 01:34:08;;;;;;;18.50;10.90;;;;;;;;;;109385;1250;59750;-80
2023/09/29 01:36:34;;;;;;;16.40;10.50;;;;;;;;;;109386;1252;59625;-80
2023/09/29 01:39:00;;;;;;;16.30;10.00;;;;;;;;;;109404;1250;59781;-80
2023/09/29 01:41:27;;;;;;;18.70;10.60;;;;;;;;;;109390;1251;59593;-80
2023/09/29 01:43:53;;;;;;;15.00;10.50;;;;;;;;;;109368;1251;59625;-80
2023/09/29 01:46:20;;;;;;;17.40;12.10;;;;;;;;;;109419;1251;59141;-80
2023/09/29 01:48:46;;;;;;;17.00;10.60;;;;;;;;;;109344;1251;59652;-81
2023/09/29 01:51:12;;;;;;;17.10;9.90;;;;;;;;;;109399;1254;59341;-80
2023/09/29 01:53:39;;;;;;;14.30;11.00;;;;;;;;;;109420;1251;59117;-80
2023/09/29 01:56:05;;;;;;;20.20;10.50;;;;;;;;;;109398;1254;59529;-82
2023/09/29 01:58:32;;;;;;;14.80;10.40;;;;;;;;;;109451;1251;59551;-80
2023/09/29 02:00:58;;;;;;;15.00;9.90;;;;;;;;;;109424;1251;59030;-81
2023/09/29 02:03:24;;;;;;;13.20;9.30;;;;;;;;;;109373;1251;59185;-80
2023/09/29 02:05:51;;;;;;;14.00;10.50;;;;;;;;;;109383;1251;59053;-80
2023/09/29 02:08:18;;;;;;;20.20;11.30;;;;;;;;;;109344;1251;59144;-80
2023/09/29 02:10:49;;;;;;;14.80;10.10;;;;;;;;;;109380;1253;59671;-79
2023/09/29 02:13:16;;;;;;;15.40;10.10;;;;;;;;;;109409;1251;59026;-80
2023/09/29 02:15:42;;;;;;;15.80;10.40;;;;;;;;;;109439;1251;62868;-80
2023/09/29 02:18:09;;;;;;;14.60;10.50;;;;;;;;;;109423;1251;59170;-80
2023/09/29 02:20:36;;;;;;;13.10;9.60;;;;;;;;;;109389;1251;59640;-80
2023/09/29 02:23:05;;;;;;;14.60;9.70;;;;;;;;;;109341;1252;59874;-79
2023/09/29 02:25:32;;;;;;;20.70;10.80;;;;;;;;;;109438;1251;58894;-80
2023/09/29 02:27:59;;;;;;;18.60;12.40;;;;;;;;;;109294;1251;61569;-80
2023/09/29 02:30:26;;;;;;;17.50;12.70;;;;;;;;;;109385;1252;58964;-80
2023/09/29 02:32:52;;;;;;;22.20;13.20;;;;;;;;;;109403;1252;60585;-80
2023/09/29 02:35:19;;;;;;;17.60;10.50;;;;;;;;;;109290;1252;59456;-80
2023/09/29 02:37:48;;;;;;;15.70;10.40;;;;;;;;;;109322;1251;59243;-80
2023/09/29 02:40:15;;;;;;;17.80;10.50;;;;;;;;;;109418;1253;61943;-79
2023/09/29 02:42:42;;;;;;;21.50;10.80;;;;;;;;;;109430;1250;59091;-79
2023/09/29 02:45:09;;;;;;;13.20;10.80;;;;;;;;;;109382;1254;59717;-80
2023/09/29 02:47:35;;;;;;;15.60;10.20;;;;;;;;;;109389;1251;59003;-80
2023/09/29 02:50:03;;;;;;;14.60;10.30;;;;;;;;;;109391;1252;59046;-80
2023/09/29 02:52:29;;;;;;;17.00;10.20;;;;;;;;;;109445;1251;62532;-80
2023/09/29 02:54:55;;;;;;;13.20;9.80;;;;;;;;;;109410;1251;59875;-80
2023/09/29 02:57:22;;;;;;;18.50;10.70;;;;;;;;;;109405;1250;59908;-80
2023/09/29 02:59:48;;;;;;;13.00;9.70;;;;;;;;;;109381;1252;58899;-79
2023/09/29 03:02:15;;;;;;;16.10;10.30;;;;;;;;;;109403;1252;59382;-80
2023/09/29 03:04:43;;;;;;;13.70;10.40;;;;;;;;;;109310;1252;59073;-79
2023/09/29 03:07:09;;;;;;;14.60;10.70;;;;;;;;;;109380;1251;59134;-80
2023/09/29 03:09:36;;;;;;;14.50;11.10;;;;;;;;;;109372;1251;59649;-80
2023/09/29 03:12:03;;;;;;;17.70;10.20;;;;;;;;;;109368;1251;59011;-80
2023/09/29 03:14:30;;;;;;;17.00;10.50;;;;;;;;;;109428;1251;59300;-80
2023/09/29 03:17:00;;;;;;;13.60;9.80;;;;;;;;;;109333;1251;58999;-80
2023/09/29 03:19:27;;;;;;;20.80;12.60;;;;;;;;;;109428;1252;59081;-80
2023/09/29 03:21:53;;;;;;;15.70;10.80;;;;;;;;;;109388;1251;60745;-80
2023/09/29 03:24:19;;;;;;;17.20;10.40;;;;;;;;;;109364;1250;59573;-80
2023/09/29 03:26:46;;;;;;;17.20;11.10;;;;;;;;;;109363;1253;59095;-80
2023/09/29 03:29:12;;;;;;;16.90;11.80;;;;;;;;;;109382;1251;59753;-80
2023/09/29 03:31:39;;;;;;;14.40;10.70;;;;;;;;;;109421;1251;59499;-80
2023/09/29 03:34:06;;;;;;;20.60;10.80;;;;;;;;;;109368;1251;58937;-80
2023/09/29 03:36:33;;;;;;;20.50;10.10;;;;;;;;;;109233;1251;59370;-80
2023/09/29 03:39:00;;;;;;;19.00;9.90;;;;;;;;;;109374;1251;59415;-80
2023/09/29 03:41:29;;;;;;;16.80;10.20;;;;;;;;;;109386;1251;61945;-80
2023/09/29 03:43:55;;;;;;;15.70;9.90;;;;;;;;;;109397;1250;59064;-80
2023/09/29 03:46:24;;;;;;;19.80;10.40;;;;;;;;;;109385;1251;59069;-79
2023/09/29 03:48:50;;;;;;;16.80;10.90;;;;;;;;;;109398;1250;58979;-80
2023/09/29 03:51:21;;;;;;;14.10;9.30;;;;;;;;;;109403;1251;59202;-80
2023/09/29 03:53:48;;;;;;;16.60;10.30;;;;;;;;;;109452;1251;60413;-79
2023/09/29 03:56:15;;;;;;;15.10;10.10;;;;;;;;;;109384;1251;59606;-80
2023/09/29 03:58:41;;;;;;;22.80;10.70;;;;;;;;;;109411;1251;59723;-80
2023/09/29 04:01:08;;;;;;;19.70;10.80;;;;;;;;;;109411;1251;59061;-80
2023/09/29 04:03:34;;;;;;;18.20;10.50;;;;;;;;;;109406;1251;59435;-79
2023/09/29 04:06:01;;;;;;;16.20;9.30;;;;;;;;;;109363;1251;62731;-79
2023/09/29 04:08:27;;;;;;;14.40;10.10;;;;;;;;;;109460;1251;59532;-80
2023/09/29 04:10:54;;;;;;;16.00;10.10;;;;;;;;;;109417;1251;59652;-80
2023/09/29 04:13:20;;;;;;;15.00;11.00;;;;;;;;;;109384;1251;59683;-80
2023/09/29 04:15:46;;;;;;;21.00;11.10;;;;;;;;;;109444;1252;59094;-79
2023/09/29 04:18:13;;;;;;;16.80;11.10;;;;;;;;;;109369;1251;59566;-79
2023/09/29 04:20:39;;;;;;;17.70;10.50;;;;;;;;;;109358;1253;59083;-80
2023/09/29 04:23:06;;;;;;;17.20;11.30;;;;;;;;;;109381;1250;59722;-80
2023/09/29 04:25:32;;;;;;;19.40;10.50;;;;;;;;;;109356;1251;59221;-80
2023/09/29 04:27:59;;;;;;;15.90;10.40;;;;;;;;;;109454;1251;59515;-80
2023/09/29 04:30:25;;;;;;;17.30;11.00;;;;;;;;;;109384;1250;59725;-80
2023/09/29 04:32:55;;;;;;;19.00;11.90;;;;;;;;;;109257;1251;59131;-79
2023/09/29 04:35:21;;;;;;;23.60;11.70;;;;;;;;;;109332;1251;59656;-80
2023/09/29 04:37:49;;;;;;;22.80;11.20;;;;;;;;;;109380;1251;59377;-80
2023/09/29 04:40:16;;;;;;;19.20;10.80;;;;;;;;;;109379;1251;58901;-79
2023/09/29 04:42:42;;;;;;;19.40;12.40;;;;;;;;;;109364;1251;62558;-80
2023/09/29 04:45:09;;;;;;;19.30;11.30;;;;;;;;;;109366;1251;59025;-80
2023/09/29 04:47:35;;;;;;;16.10;11.80;;;;;;;;;;109351;1254;60372;-80
2023/09/29 04:50:01;;;;;;;20.40;11.40;;;;;;;;;;109364;1251;59746;-79
2023/09/29 04:52:28;;;;;;;27.00;13.50;;;;;;;;;;109507;1251;59037;-80
2023/09/29 04:54:54;;;;;;;21.50;12.20;;;;;;;;;;109336;1251;59714;-80
2023/09/29 04:57:21;;;;;;;17.50;11.20;;;;;;;;;;109376;1251;59149;-80
2023/09/29 04:59:48;;;;;;;18.70;11.10;;;;;;;;;;109341;1251;59568;-80
2023/09/29 05:02:14;;;;;;;20.00;11.10;;;;;;;;;;109393;1251;59522;-79
2023/09/29 05:04:40;;;;;;;22.20;13.40;;;;;;;;;;109358;1252;59692;-80
2023/09/29 05:07:07;;;;;;;18.60;11.90;;;;;;;;;;109243;1256;59168;-79
2023/09/29 05:09:34;;;;;;;17.30;10.50;;;;;;;;;;109390;1253;59054;-80
2023/09/29 05:12:01;;;;;;;15.70;11.60;;;;;;;;;;109364;1251;59753;-80
2023/09/29 05:14:27;;;;;;;21.80;11.10;;;;;;;;;;109309;1251;58997;-80
2023/09/29 05:16:54;;;;;;;16.00;10.20;;;;;;;;;;109351;1251;59602;-80
2023/09/29 05:19:20;;;;;;;15.60;10.10;;;;;;;;;;109353;1252;58880;-80
2023/09/29 05:21:46;;;;;;;16.40;9.90;;;;;;;;;;109275;1253;59647;-80
2023/09/29 05:24:13;;;;;;;20.50;10.60;;;;;;;;;;109283;1254;59438;-80
2023/09/29 05:26:39;;;;;;;17.10;10.80;;;;;;;;;;109323;1251;59113;-80
2023/09/29 05:29:06;;;;;;;17.30;11.00;;;;;;;;;;109359;1252;59084;-81
2023/09/29 05:31:32;;;;;;;21.00;11.00;;;;;;;;;;109377;1255;59045;-80
2023/09/29 05:33:58;;;;;;;18.90;10.80;;;;;;;;;;109376;1251;59532;-80
2023/09/29 05:36:25;;;;;;;27.10;11.70;;;;;;;;;;109408;1251;60337;-80
2023/09/29 05:38:51;;;;;;;17.70;12.30;;;;;;;;;;109348;1251;59696;-80
2023/09/29 05:41:18;;;;;;;15.90;11.20;;;;;;;;;;109224;1254;59512;-80
2023/09/29 05:43:44;;;;;;;17.40;11.30;;;;;;;;;;109272;1253;59683;-80
2023/09/29 05:46:11;;;;;;;17.50;11.40;;;;;;;;;;109328;1255;59578;-80
2023/09/29 05:48:37;;;;;;;21.80;11.70;;;;;;;;;;109358;1254;59704;-80
2023/09/29 05:51:03;;;;;;;23.10;11.70;;;;;;;;;;109448;1250;59309;-80
2023/09/29 05:53:30;;;;;;;18.80;11.90;;;;;;;;;;109435;1251;59790;-80
2023/09/29 05:55:56;;;;;;;23.50;14.80;;;;;;;;;;109314;1253;59028;-80
2023/09/29 05:58:23;;;;;;;22.40;14.00;;;;;;;;;;109301;1254;59193;-80
2023/09/29 06:00:49;;;;;;;22.00;14.20;;;;;;;;;;109227;1255;59548;-80
2023/09/29 06:03:16;;;;;;;21.30;13.00;;;;;;;;;;109314;1253;59720;-80
2023/09/29 06:05:42;;;;;;;16.50;12.00;;;;;;;;;;109368;1251;59189;-80
2023/09/29 06:08:09;;;;;;;22.90;14.40;;;;;;;;;;109335;1250;59397;-80
2023/09/29 06:10:35;;;;;;;21.30;12.20;;;;;;;;;;109278;1251;59722;-80
2023/09/29 06:13:02;;;;;;;20.60;11.80;;;;;;;;;;109379;1251;59247;-80
2023/09/29 06:15:28;;;;;;;17.30;12.90;;;;;;;;;;109385;1254;59685;-80
2023/09/29 06:17:56;;;;;;;18.30;11.40;;;;;;;;;;109310;1254;59081;-80
2023/09/29 06:20:22;;;;;;;16.00;11.90;;;;;;;;;;109476;1251;61070;-80
2023/09/29 06:22:49;;;;;;;15.80;12.00;;;;;;;;;;109364;1251;60369;-80
2023/09/29 06:25:15;;;;;;;18.30;12.90;;;;;;;;;;109263;1251;59032;-80
2023/09/29 06:27:42;;;;;;;17.10;12.90;;;;;;;;;;109300;1254;58998;-80
2023/09/29 06:30:08;;;;;;;18.40;13.40;;;;;;;;;;109169;1251;59728;-80
2023/09/29 06:32:34;;;;;;;21.20;13.40;;;;;;;;;;109351;1251;59635;-80
2023/09/29 06:35:01;;;;;;;18.50;12.80;;;;;;;;;;109300;1251;59056;-80
2023/09/29 06:37:27;;;;;;;21.80;12.70;;;;;;;;;;109312;1251;59707;-80
2023/09/29 06:39:54;;;;;;;20.70;11.60;;;;;;;;;;109383;1251;58947;-80
2023/09/29 06:42:20;;;;;;;18.10;13.00;;;;;;;;;;109392;1254;59019;-80
2023/09/29 06:44:47;;;;;;;18.70;13.10;;;;;;;;;;109349;1251;59126;-80
2023/09/29 06:47:13;;;;;;;17.70;12.80;;;;;;;;;;109363;1251;59733;-80
2023/09/29 06:49:40;;;;;;;19.60;12.30;;;;;;;;;;109364;1251;59010;-80
2023/09/29 06:52:06;;;;;;;15.10;11.70;;;;;;;;;;109327;1251;59357;-80
2023/09/29 06:54:33;;;;;;;22.50;13.30;;;;;;;;;;109377;1251;59038;-80
2023/09/29 06:56:59;;;;;;;19.20;14.60;;;;;;;;;;109317;1256;59736;-80
2023/09/29 06:59:26;;;;;;;22.40;16.20;;;;;;;;;;109373;1251;59638;-80
2023/09/29 07:01:55;;;;;;;26.20;14.30;;;;;;;;;;109359;1251;59472;-81
2023/09/29 07:04:21;;;;;;;19.70;14.20;;;;;;;;;;109317;1253;59323;-80
2023/09/29 07:06:47;;;;;;;16.20;13.50;;;;;;;;;;109359;1251;59058;-81
2023/09/29 07:09:14;;;;;;;21.40;13.20;;;;;;;;;;109379;1251;59116;-81
2023/09/29 07:11:41;;;;;;;18.50;12.10;;;;;;;;;;109363;1251;59072;-81
2023/09/29 07:14:08;;;;;;;17.70;10.40;;;;;;;;;;109331;1254;59128;-81
2023/09/29 07:16:34;;;;;;;16.50;10.80;;;;;;;;;;109372;1251;59616;-81
2023/09/29 07:19:01;;;;;;;12.70;9.50;;;;;;;;;;109374;1251;59449;-81
2023/09/29 07:21:27;;;;;;;15.30;9.90;;;;;;;;;;109357;1251;59063;-81
2023/09/29 07:23:56;;;;;;;19.40;9.70;;;;;;;;;;109345;1251;58995;-81
2023/09/29 07:26:23;;;;;;;14.20;9.60;;;;;;;;;;109243;1251;59646;-81
2023/09/29 07:28:49;;;;;;;14.60;9.70;;;;;;;;;;109294;1251;59565;-82
2023/09/29 07:31:15;;;;;;;16.60;10.70;;;;;;;;;;109299;1251;59089;-83
2023/09/29 07:33:42;;;;;;;19.20;10.80;;;;;;;;;;109333;1251;59683;-81
2023/09/29 07:36:09;;;;;;;19.90;10.70;;;;;;;;;;109329;1251;59754;-81
2023/09/29 07:38:35;;;;;;;13.20;9.90;;;;;;;;;;109298;1251;59252;-82
2023/09/29 07:41:04;;;;;;;15.00;10.20;;;;;;;;;;109360;1250;59717;-82
2023/09/29 07:43:31;;;;;;;13.60;8.30;;;;;;;;;;109368;1253;59363;-81
2023/09/29 07:45:57;;;;;;;17.00;8.00;;;;;;;;;;109374;1251;59113;-82
2023/09/29 07:48:24;;;;;;;11.90;7.70;;;;;;;;;;109477;1251;60097;-82
2023/09/29 07:50:50;;;;;;;11.90;7.10;;;;;;;;;;109354;1251;59093;-82
2023/09/29 07:53:17;;;;;;;12.50;8.60;;;;;;;;;;109334;1251;59476;-82
2023/09/29 07:55:44;;;;;;;17.20;8.50;;;;;;;;;;109337;1251;59736;-82
2023/09/29 07:58:11;;;;;;;11.60;7.40;;;;;;;;;;109330;1251;62820;-82
2023/09/29 08:00:37;;;;;;;20.40;7.50;;;;;;;;;;109355;1251;59630;-82
2023/09/29 08:03:04;;;;;;;12.90;7.20;;;;;;;;;;109288;1251;59003;-82
2023/09/29 08:05:30;;;;;;;16.80;7.00;;;;;;;;;;109337;1251;59778;-82
2023/09/29 08:07:56;;;;;;;11.70;6.60;;;;;;;;;;109343;1251;59888;-82
2023/09/29 08:10:23;;;;;;;9.90;6.80;;;;;;;;;;109448;1251;59687;-82
2023/09/29 08:12:49;;;;;;;6.60;5.60;;;;;;;;;;109398;1251;59374;-83
2023/09/29 08:15:16;;;;;;;16.00;6.70;;;;;;;;;;109349;1251;59832;-82
2023/09/29 08:17:44;;;;;;;12.90;6.50;;;;;;;;;;109384;1251;59425;-82
2023/09/29 08:20:10;;;;;;;11.60;6.70;;;;;;;;;;109354;1251;59005;-82
2023/09/29 08:22:37;;;;;;;13.20;7.00;;;;;;;;;;109342;1251;61614;-82
2023/09/29 08:25:07;;;;;;;9.30;5.90;;;;;;;;;;109346;1251;59292;-82
2023/09/29 08:27:34;;;;;;;15.10;6.80;;;;;;;;;;109368;1251;60762;-82
2023/09/29 08:30:01;;;;;;;17.10;6.80;;;;;;;;;;109436;1250;59559;-83
2023/09/29 08:32:27;;;;;;;9.00;5.80;;;;;;;;;;109382;1251;59076;-83
2023/09/29 08:34:54;;;;;;;10.10;6.30;;;;;;;;;;109361;1251;60417;-83
2023/09/29 08:37:21;;;;;;;8.30;6.30;;;;;;;;;;109386;1251;59013;-83
2023/09/29 08:39:47;;;;;;;7.50;5.80;;;;;;;;;;109351;1251;59688;-84
2023/09/29 08:42:19;;;;;;;13.30;5.70;;;;;;;;;;109363;1251;59381;-83
2023/09/29 08:44:45;;;;;;;13.40;5.90;;;;;;;;;;109362;1251;59347;-83
2023/09/29 08:47:11;;;;;;;11.80;6.40;;;;;;;;;;109360;1251;59613;-83
2023/09/29 08:49:38;;;;;;;9.40;6.40;;;;;;;;;;109234;1251;59585;-83
2023/09/29 08:52:05;;;;;;;13.70;6.80;;;;;;;;;;109227;1251;60160;-83
2023/09/29 08:54:31;;;;;;;8.70;6.50;;;;;;;;;;109259;1251;59612;-82
2023/09/29 08:56:58;;;;;;;7.50;6.50;;;;;;;;;;109297;1250;59900;-82
2023/09/29 08:59:26;;;;;;;10.60;7.00;;;;;;;;;;109410;1250;61592;-83
2023/09/29 09:01:55;;;;;;;15.80;6.70;;;;;;;;;;109400;1250;59695;-82
2023/09/29 09:04:21;;;;;;;12.10;6.20;;;;;;;;;;109317;1251;59469;-82
2023/09/29 09:06:48;;;;;;;9.90;7.40;;;;;;;;;;109334;1251;59627;-82
2023/09/29 09:09:20;;;;;;;12.90;6.60;;;;;;;;;;109357;1251;59792;-82
2023/09/29 09:11:46;;;;;;;14.40;6.90;;;;;;;;;;109346;1250;60480;-82
2023/09/29 09:14:13;;;;;;;13.90;7.40;;;;;;;;;;109345;1251;58982;-82
2023/09/29 09:16:40;;;;;;;11.80;6.80;;;;;;;;;;109362;1250;59389;-82
2023/09/29 09:19:10;;;;;;;11.60;7.20;;;;;;;;;;109378;1250;59110;-81
2023/09/29 09:21:36;;;;;;;18.40;7.00;;;;;;;;;;109390;1251;58991;-81
2023/09/29 09:24:03;;;;;;;14.30;7.20;;;;;;;;;;109353;1251;59298;-81
2023/09/29 09:26:30;;;;;;;12.00;6.60;;;;;;;;;;109388;1251;59671;-81
2023/09/29 09:29:07;;;;;;;16.70;7.70;;;;;;;;;;109331;1250;59688;-81
2023/09/29 09:31:44;;;;;;;18.60;8.30;;;;;;;;;;109344;1251;59014;-82
2023/09/29 09:34:12;;;;;;;17.50;8.10;;;;;;;;;;109426;1250;59259;-82
2023/09/29 09:36:39;;;;;;;;;;;;;;;;;;109352;1254;61940;-82
2023/09/29 09:39:09;;;;;;;11.30;8.80;;;;;;;;;;109361;1251;59431;-82
2023/09/29 09:41:35;;;;;;;14.30;7.60;;;;;;;;;;109334;1251;59635;-82
2023/09/29 09:44:03;;;;;;;14.60;7.50;;;;;;;;;;109370;1250;59116;-82
2023/09/29 09:46:31;;;;;;;17.60;7.70;;;;;;;;;;109318;1251;59666;-82
2023/09/29 09:49:08;;;;;;;12.80;7.30;;;;;;;;;;109444;1250;60669;-81
2023/09/29 09:51:38;;;;;;;13.50;7.40;;;;;;;;;;109358;1251;59745;-81
2023/09/29 09:54:08;;;;;;;15.80;7.00;;;;;;;;;;109436;1250;59107;-82
2023/09/29 09:56:42;;;;;;;11.40;7.00;;;;;;;;;;109265;1251;59289;-81
2023/09/29 09:59:08;;;;;;;14.90;7.60;;;;;;;;;;109201;1251;59324;-81
2023/09/29 10:01:34;;;;;;;24.30;7.90;;;;;;;;;;109333;1250;59056;-82
2023/09/29 10:04:04;;;;;;;10.60;6.60;;;;;;;;;;109272;1251;59848;-81
2023/09/29 10:06:31;;;;;;;10.60;6.80;;;;;;;;;;109283;1251;60843;-81
2023/09/29 10:08:58;;;;;;;8.80;6.60;;;;;;;;;;109338;1251;59723;-82
2023/09/29 10:11:26;;;;;;;11.80;6.50;;;;;;;;;;109392;1250;59632;-82
2023/09/29 10:14:00;;;;;;;12.30;6.90;;;;;;;;;;109351;1251;60739;-81
2023/09/29 10:16:26;;;;;;;17.20;7.20;;;;;;;;;;109395;1251;59140;-81
2023/09/29 10:18:58;;;;;;;14.10;6.00;;;;;;;;;;109379;1251;59079;-81
2023/09/29 10:21:26;;;;;;;18.00;6.70;;;;;;;;;;109349;1251;59548;-82
2023/09/29 10:23:52;;;;;;;49.30;7.50;;;;;;;;;;109227;1251;59686;-82
2023/09/29 10:26:21;;;;;;;21.00;8.00;;;;;;;;;;109335;1251;59088;-82
2023/09/29 10:28:49;;;;;;;10.50;6.00;;;;;;;;;;109362;1251;59703;-82
2023/09/29 10:31:17;;;;;;;9.10;5.60;;;;;;;;;;109235;1251;61520;-81
2023/09/29 10:33:44;;;;;;;14.70;5.90;;;;;;;;;;109334;1250;59723;-81
2023/09/29 10:36:11;;;;;;;8.60;5.70;;;;;;;;;;109413;1250;59352;-81
2023/09/29 10:38:40;;;;;;;8.90;5.10;;;;;;;;;;109279;1251;62648;-82
2023/09/29 10:41:07;;;;;;;;;;;;;;;;;;109363;1250;59136;-82
2023/09/29 10:43:35;;;;;;;10.90;5.20;;;;;;;;;;109432;1250;59367;-81
2023/09/29 10:46:06;;;;;;;8.30;5.40;;;;;;;;;;109245;1251;59839;-82
2023/09/29 10:48:33;;;;;;;9.90;5.10;;;;;;;;;;109379;1251;59352;-82
2023/09/29 10:50:59;;;;;;;9.10;5.00;;;;;;;;;;109397;1251;61578;-82
2023/09/29 10:53:26;;;;;;;6.90;4.90;;;;;;;;;;109344;1250;59470;-81
2023/09/29 10:55:54;;;;;;;8.10;5.00;;;;;;;;;;109237;1251;59804;-81
2023/09/29 10:58:21;;;;;;;15.10;6.00;;;;;;;;;;109378;1251;59039;-82
2023/09/29 11:00:51;;;;;;;12.30;5.90;;;;;;;;;;109360;1251;59231;-82
2023/09/29 11:03:20;;;;;;;10.60;5.30;;;;;;;;;;109360;1250;62066;-82
2023/09/29 11:05:51;;;;;;;9.20;5.70;;;;;;;;;;109288;1251;59655;-82
2023/09/29 11:08:21;;;;;;;9.50;5.50;;;;;;;;;;109365;1250;59730;-82
2023/09/29 11:10:55;;;;;;;11.50;6.10;;;;;;;;;;109280;1252;59051;-81
2023/09/29 11:13:21;;;;;;;7.00;4.90;;;;;;;;;;109343;1251;59258;-82
2023/09/29 11:15:48;;;;;;;9.50;5.90;;;;;;;;;;109323;1251;60485;-82
2023/09/29 11:18:24;;;;;;;11.40;5.20;;;;;;;;;;109360;1251;59661;-82
2023/09/29 11:20:52;;;;;;;10.80;5.30;;;;;;;;;;109274;1251;60151;-81
2023/09/29 11:23:19;;;;;;;10.10;4.80;;;;;;;;;;109411;1251;59652;-81
2023/09/29 11:25:45;;;;;;;9.90;5.40;;;;;;;;;;109329;1251;59679;-82
2023/09/29 11:28:12;;;;;;;7.90;5.30;;;;;;;;;;109337;1251;59059;-82
2023/09/29 11:30:39;;;;;;;10.60;5.10;;;;;;;;;;109340;1250;59415;-82
2023/09/29 11:33:09;;;;;;;10.20;5.00;;;;;;;;;;109344;1251;59666;-81
2023/09/29 11:35:36;;;;;;;23.80;7.00;;;;;;;;;;109351;1252;59590;-82
2023/09/29 11:38:03;;;;;;;19.10;5.90;;;;;;;;;;109352;1250;59556;-82
2023/09/29 11:40:30;;;;;;;49.00;7.70;;;;;;;;;;109375;1249;61945;-81
2023/09/29 11:42:56;;;;;;;35.00;7.20;;;;;;;;;;109369;1250;59711;-81
2023/09/29 11:45:24;;;;;;;16.90;6.80;;;;;;;;;;109331;1251;59168;-81
2023/09/29 11:47:50;;;;;;;11.10;5.50;;;;;;;;;;109319;1251;59622;-82
2023/09/29 11:50:18;;;;;;;9.90;4.80;;;;;;;;;;109348;1251;59623;-81
2023/09/29 11:52:44;;;;;;;13.30;5.00;;;;;;;;;;109347;1250;60576;-82
2023/09/29 11:55:11;;;;;;;10.40;4.50;;;;;;;;;;109322;1251;59111;-82
2023/09/29 11:57:40;;;;;;;8.80;5.60;;;;;;;;;;109334;1251;60704;-82
2023/09/29 12:00:10;;;;;;;11.70;5.90;;;;;;;;;;109318;1251;59459;-82
2023/09/29 12:02:36;;;;;;;10.40;5.70;;;;;;;;;;109360;1249;59074;-82
2023/09/29 12:05:04;;;;;;;15.60;5.80;;;;;;;;;;109367;1250;61953;-82
2023/09/29 12:07:31;;;;;;;13.60;6.20;;;;;;;;;;109199;1253;59153;-83
2023/09/29 12:09:58;;;;;;;13.20;6.00;;;;;;;;;;109320;1251;59722;-81
2023/09/29 12:12:24;;;;;;;61.60;9.80;;;;;;;;;;109272;1251;59034;-81
2023/09/29 12:14:53;;;;;;;57.30;8.70;;;;;;;;;;109368;1251;59091;-82
2023/09/29 12:17:20;;;;;;;74.40;9.70;;;;;;;;;;109235;1251;62406;-81
2023/09/29 12:19:47;;;;;;;10.70;5.90;;;;;;;;;;109320;1250;59740;-82
2023/09/29 12:22:14;;;;;;;10.70;5.00;;;;;;;;;;109325;1251;59680;-82
2023/09/29 12:24:40;;;;;;;10.30;5.30;;;;;;;;;;109337;1251;59615;-82
2023/09/29 12:27:08;;;;;;;37.80;7.30;;;;;;;;;;109365;1251;59327;-81
2023/09/29 12:29:34;;;;;;;16.10;5.70;;;;;;;;;;109397;1251;61622;-81
2023/09/29 12:32:01;;;;;;;86.10;10.90;;;;;;;;;;109324;1250;59160;-81
2023/09/29 12:34:32;;;;;;;86.00;10.80;;;;;;;;;;109341;1249;60451;-81
2023/09/29 12:36:59;;;;;;;14.10;6.90;;;;;;;;;;109350;1250;59105;-81
2023/09/29 12:39:26;;;;;;;12.00;5.60;;;;;;;;;;109260;1250;59220;-82
2023/09/29 12:41:52;;;;;;;15.20;6.40;;;;;;;;;;109334;1251;60621;-81
2023/09/29 12:44:19;;;;;;;8.70;5.40;;;;;;;;;;109431;1251;59054;-82
2023/09/29 12:46:46;;;;;;;24.10;6.40;;;;;;;;;;109334;1251;59016;-81
2023/09/29 12:49:12;;;;;;;19.30;6.80;;;;;;;;;;109421;1250;59292;-81
2023/09/29 12:51:38;;;;;;;20.70;6.30;;;;;;;;;;109356;1252;59150;-81
2023/09/29 12:54:05;;;;;;;44.50;8.40;;;;;;;;;;109352;1254;59332;-81
2023/09/29 12:56:32;;;;;;;84.40;11.60;;;;;;;;;;109349;1251;59040;-82
2023/09/29 12:58:58;;;;;;;21.30;6.20;;;;;;;;;;109378;1251;59670;-82
2023/09/29 13:01:28;;;;;;;23.20;6.80;;;;;;;;;;109373;1251;59463;-81
2023/09/29 13:03:54;;;;;;;12.50;5.50;;;;;;;;;;109352;1251;59643;-86
2023/09/29 13:06:21;;;;;;;8.20;6.00;;;;;;;;;;109265;1251;59013;-86
2023/09/29 13:08:48;;;;;;;9.90;6.10;;;;;;;;;;109413;1250;59472;-79
2023/09/29 13:11:15;;;;;;;54.80;9.20;;;;;;;;;;109233;1251;160121;-79
2023/09/29 13:13:41;;;;;;;44.30;7.80;;;;;;;;;;109369;1251;59060;-79
2023/09/29 13:16:09;;;;;;;12.30;5.90;;;;;;;;;;109368;1252;58954;-79
2023/09/29 13:18:36;;;;;;;13.70;6.60;;;;;;;;;;109326;1251;62018;-85
2023/09/29 13:21:02;;;;;;;14.50;6.10;;;;;;;;;;109361;1249;59151;-79
2023/09/29 13:23:29;;;;;;;16.70;6.30;;;;;;;;;;109330;1251;59436;-78
2023/09/29 13:25:55;;;;;;;20.00;6.00;;;;;;;;;;109317;1252;59636;-85
2023/09/29 13:28:22;;;;;;;8.50;5.70;;;;;;;;;;109277;1250;59272;-79
2023/09/29 13:30:48;;;;;;;13.50;6.00;;;;;;;;;;109353;1251;59029;-81
2023/09/29 13:33:15;;;;;;;10.20;6.20;;;;;;;;;;109237;1251;59681;-81
2023/09/29 13:35:41;;;;;;;13.40;6.00;;;;;;;;;;109348;1251;59434;-81
2023/09/29 13:38:08;;;;;;;9.90;5.70;;;;;;;;;;109382;1250;59847;-82
2023/09/29 13:40:34;;;;;;;11.70;5.40;;;;;;;;;;109396;1251;59032;-81
2023/09/29 13:43:00;;;;;;;11.70;6.30;;;;;;;;;;109413;1249;60072;-81
2023/09/29 13:45:27;;;;;;;15.00;6.60;;;;;;;;;;109179;1251;59225;-82
2023/09/29 13:47:54;;;;;;;8.90;5.70;;;;;;;;;;109177;1251;59305;-82
2023/09/29 13:50:20;;;;;;;15.80;6.00;;;;;;;;;;109299;1252;59716;-81
2023/09/29 13:52:46;;;;;;;8.60;5.30;;;;;;;;;;109330;1251;59325;-81
2023/09/29 13:55:13;;;;;;;8.20;5.30;;;;;;;;;;109418;1249;59693;-82
2023/09/29 13:57:40;;;;;;;10.90;5.60;;;;;;;;;;109352;1251;59711;-82
2023/09/29 14:00:07;;;;;;;10.50;5.70;;;;;;;;;;109369;1251;59243;-81
2023/09/29 14:02:34;;;;;;;12.80;6.60;;;;;;;;;;109353;1251;59439;-81
2023/09/29 14:05:01;;;;;;;11.00;6.50;;;;;;;;;;109323;1251;59369;-81
2023/09/29 14:07:27;;;;;;;18.20;5.90;;;;;;;;;;109351;1249;61457;-81
2023/09/29 14:09:54;;;;;;;12.40;6.00;;;;;;;;;;109297;1250;59710;-81
2023/09/29 14:12:20;;;;;;;16.80;6.50;;;;;;;;;;109319;1251;60486;-82